Fairholm, Washington
Current Conditions -  °F | °C
As of 5:31 PM on Saturday 25 Oct 2014 (Local Time) from KCLM Reporting Station
Heavy Rain Heavy Rain  
Wind Chill: 52°   Ceiling: 300
Heat Index: 52°   Visibility: 2.5mi
Dew Point: 50°   Wind: 10mph
Humidity: 93%   Direction: 270°W
Pressure: 29.23"   Gusts: 17mph
Location:  48.0203°N, 123.478°W
Report Text: KCLM 260031Z AUTO 27009G15KT 2 1/2SM +RA BR OVC003 11/10 A2923 RMK AO2 P0014 T01110100 TSNO $
Loading
Personal Weather Stations






























Interactive Weather Map
Tropical Storm Tracking
New forecast layout! Learn more

10-Day Weather Forecast

Advertisements
Track Severe Weather on mobile